Time;durP1;ratioP1;P1;durP2;ratioP2;P2;SDS_P1;SDS_P2;PMS_P1;PMS_P2;Temp;Humidity;BMP_temperature;BMP_pressure;BME280_temperature;BME280_humidity;BME280_pressure;Samples;Min_cycle;Max_cycle;Signal;HPM_P1;HPM_P2
2022/11/08 00:02:36;;;;;;;;;;;8.20;62.20;;;3.45;100.00;95549.16;4982568;28;19959;-57
2022/11/08 00:16:01;;;;;;;;;;;8.20;62.60;;;3.45;100.00;95535.19;4997426;28;19917;-56
2022/11/08 00:18:27;;;;;;;;;;;8.10;62.60;;;3.45;100.00;95537.81;4993236;28;20356;-54
2022/11/08 00:21:01;;;;;;;;;;;8.10;62.70;;;3.44;100.00;95536.97;4972208;28;19948;-56
2022/11/08 00:23:30;;;;;;;;;;;8.10;62.70;;;3.50;100.00;95530.03;4957847;28;19920;-57
2022/11/08 00:25:59;;;;;;;;;;;8.10;62.70;;;3.49;100.00;95538.97;4976403;28;19910;-58
2022/11/08 00:28:27;;;;;;;;;;;8.10;62.70;;;3.47;100.00;95528.63;4974319;28;19909;-58
2022/11/08 00:30:53;;;;;;;;;;;8.10;62.70;;;3.45;100.00;95533.34;4970263;28;19964;-55
2022/11/08 00:33:19;;;;;;;;;;;8.10;62.70;;;3.42;100.00;95532.97;4974508;28;19952;-58
2022/11/08 00:35:47;;;;;;;;;;;8.10;62.70;;;3.39;100.00;95531.59;4966001;28;19913;-55
2022/11/08 00:38:18;;;;;;;;;;;8.10;62.80;;;3.37;100.00;95527.56;4970837;28;19914;-56
2022/11/08 00:40:47;;;;;;;;;;;8.10;62.80;;;3.36;100.00;95529.41;4974024;28;20288;-55
2022/11/08 00:43:15;;;;;;;;;;;8.00;62.70;;;3.35;100.00;95530.41;4972563;28;19913;-56
2022/11/08 00:45:41;;;;;;;;;;;8.00;62.80;;;3.32;100.00;95532.66;4973844;28;19913;-58
2022/11/08 00:48:07;;;;;;;;;;;8.00;62.90;;;3.24;100.00;95525.88;4952552;28;19960;-53
2022/11/08 00:50:38;;;;;;;;;;;8.00;62.90;;;3.20;100.00;95525.53;4964747;28;19910;-53
2022/11/08 00:53:04;;;;;;;;;;;8.00;62.90;;;3.25;100.00;95527.47;4956520;28;20025;-55
2022/11/08 00:55:30;;;;;;;;;;;8.00;63.00;;;3.22;100.00;95517.41;4973668;28;19941;-49
2022/11/08 00:58:01;;;;;;;;;;;8.00;63.00;;;3.24;100.00;95526.69;4956884;28;20353;-50
2022/11/08 01:00:30;;;;;;;;;;;8.00;63.10;;;3.27;100.00;95522.81;4955535;28;20288;-53
2022/11/08 01:05:43;;;;;;;;;;;8.00;63.20;;;3.29;100.00;95518.16;4972598;28;19917;-54
2022/11/08 01:08:10;;;;;;;;;;;8.00;63.30;;;3.28;100.00;95523.63;4940800;28;19909;-54
2022/11/08 01:10:44;;;;;;;;;;;8.00;63.30;;;3.30;100.00;95519.75;4940505;28;19936;-53
2022/11/08 01:13:14;;;;;;;;;;;8.00;63.30;;;3.35;100.00;95519.88;4972668;28;19917;-52
2022/11/08 01:15:42;;;;;;;;;;;8.00;63.30;;;3.40;100.00;95516.59;4956253;28;20296;-51
2022/11/08 01:18:11;;;;;;;;;;;8.10;63.50;;;3.43;100.00;95521.41;4971761;28;19910;-51
2022/11/08 01:20:42;;;;;;;;;;;8.10;63.50;;;3.50;100.00;95521.34;4944940;28;19918;-50
2022/11/08 01:23:10;;;;;;;;;;;8.10;63.50;;;3.48;100.00;95513.66;4974705;28;20296;-50
2022/11/08 01:25:42;;;;;;;;;;;8.10;63.50;;;3.47;100.00;95507.56;4990606;28;19917;-54
2022/11/08 01:28:11;;;;;;;;;;;8.10;63.50;;;3.44;100.00;95505.38;4975980;28;19909;-54
2022/11/08 01:30:42;;;;;;;;;;;8.10;63.30;;;3.39;100.00;95502.63;4977528;28;19909;-56
2022/11/08 01:33:09;;;;;;;;;;;8.10;63.40;;;3.33;100.00;95494.81;4980720;28;19935;-55
2022/11/08 01:35:36;;;;;;;;;;;8.10;63.30;;;3.31;100.00;95497.66;4958145;28;19936;-56
2022/11/08 01:38:05;;;;;;;;;;;8.10;63.30;;;3.24;100.00;95500.34;4991570;28;19909;-53
2022/11/08 01:40:31;;;;;;;;;;;8.00;63.30;;;3.22;100.00;95501.59;4959454;28;19909;-55
2022/11/08 01:43:29;;;;;;;;;;;8.00;63.30;;;3.14;100.00;95497.44;4974283;28;20379;-55
2022/11/08 01:46:37;;;;;;;;;;;7.90;63.30;;;3.12;100.00;95490.78;4991188;28;20372;-54
2022/11/08 01:49:11;;;;;;;;;;;7.90;63.30;;;3.10;100.00;95488.34;4977805;28;19914;-54
2022/11/08 01:52:01;;;;;;;;;;;7.80;63.40;;;3.06;100.00;95487.19;4991972;28;19909;-53
2022/11/08 01:54:41;;;;;;;;;;;7.80;63.40;;;3.00;100.00;95486.25;4973182;28;19913;-54
2022/11/08 01:57:15;;;;;;;;;;;7.70;63.40;;;2.96;100.00;95482.44;4971694;28;19913;-52
2022/11/08 01:59:45;;;;;;;;;;;7.70;64.30;;;2.91;100.00;95482.28;4969558;28;19941;-55
2022/11/08 02:02:14;;;;;;;;;;;7.70;63.60;;;2.91;100.00;95477.03;4974790;28;20288;-50
2022/11/08 02:04:42;;;;;;;;;;;7.60;63.60;;;2.91;100.00;95479.66;4974943;28;20403;-52
2022/11/08 02:07:12;;;;;;;;;;;7.60;63.70;;;2.89;100.00;95473.81;4957547;28;19915;-52
2022/11/08 02:09:43;;;;;;;;;;;7.60;63.70;;;2.89;100.00;95473.03;4958818;28;19916;-54
2022/11/08 02:12:21;;;;;;;;;;;7.60;63.80;;;2.84;100.00;95464.97;4972001;28;19913;-56
2022/11/08 02:14:47;;;;;;;;;;;7.60;63.80;;;2.76;100.00;95461.63;4974687;28;19909;-52
2022/11/08 02:17:16;;;;;;;;;;;7.60;63.80;;;2.73;100.00;95458.63;4955906;28;19925;-55
2022/11/08 02:19:46;;;;;;;;;;;7.50;63.80;;;2.68;100.00;95459.25;4981545;28;20008;-53
2022/11/08 02:22:32;;;;;;;;;;;7.50;63.80;;;2.73;100.00;95464.69;4941250;28;19918;-52
2022/11/08 02:24:59;;;;;;;;;;;7.50;64.00;;;2.74;100.00;95463.66;4954667;28;20292;-54
2022/11/08 02:27:30;;;;;;;;;;;7.50;64.00;;;2.74;100.00;95455.75;4955036;28;19910;-54
2022/11/08 02:29:59;;;;;;;;;;;7.50;64.80;;;2.69;100.00;95457.44;4954021;28;19909;-55
2022/11/08 02:32:28;;;;;;;;;;;7.40;64.00;;;2.63;100.00;95450.41;4955254;28;19910;-53
2022/11/08 02:34:58;;;;;;;;;;;7.40;64.00;;;2.57;100.00;95438.97;4972124;28;19910;-52
2022/11/08 02:37:27;;;;;;;;;;;7.40;63.90;;;2.57;100.00;95438.97;4971367;28;20008;-55
2022/11/08 02:39:52;;;;;;;;;;;7.40;64.00;;;2.59;100.00;95439.53;4954805;28;20296;-53
2022/11/08 02:42:27;;;;;;;;;;;7.40;64.10;;;2.62;100.00;95443.56;4937834;28;19921;-54
2022/11/08 02:44:53;;;;;;;;;;;7.30;64.10;;;2.58;100.00;95440.56;4971878;28;19949;-50
2022/11/08 02:47:27;;;;;;;;;;;7.30;64.20;;;2.57;100.00;95446.00;4950900;28;20392;-56
2022/11/08 02:49:53;;;;;;;;;;;7.30;64.20;;;2.57;100.00;95438.13;4959861;28;19997;-55
2022/11/08 02:52:18;;;;;;;;;;;7.30;64.20;;;2.56;100.00;95439.97;4954933;28;19916;-57
2022/11/08 02:54:47;;;;;;;;;;;7.30;64.30;;;2.56;100.00;95437.31;4953631;28;20343;-55
2022/11/08 02:57:19;;;;;;;;;;;7.30;64.30;;;2.55;100.00;95438.34;4971948;28;19910;-57
2022/11/08 02:59:44;;;;;;;;;;;7.30;64.30;;;2.59;100.00;95444.78;4952640;28;19909;-57
2022/11/08 03:02:10;;;;;;;;;;;7.30;64.50;;;2.57;100.00;95438.13;4968121;28;20411;-53
2022/11/08 03:04:42;;;;;;;;;;;7.30;64.50;;;2.56;100.00;95424.19;4971868;28;19941;-57
2022/11/08 03:07:08;;;;;;;;;;;7.30;64.50;;;2.53;100.00;95433.31;4953232;28;19917;-57
2022/11/08 03:09:36;;;;;;;;;;;7.30;64.50;;;2.50;100.00;95425.84;4954721;28;20285;-55
2022/11/08 03:12:08;;;;;;;;;;;7.30;64.50;;;2.52;100.00;95436.97;4951306;28;19910;-56
2022/11/08 03:14:43;;;;;;;;;;;7.30;64.50;;;2.59;100.00;95451.88;4954389;28;19942;-58
2022/11/08 03:17:09;;;;;;;;;;;7.30;64.60;;;2.64;100.00;95439.69;4968756;28;19917;-51
2022/11/08 03:19:34;;;;;;;;;;;7.30;64.70;;;2.63;100.00;95430.16;4970465;28;19909;-52
2022/11/08 03:22:09;;;;;;;;;;;7.30;64.80;;;2.61;100.00;95436.69;4985765;28;20380;-47
2022/11/08 03:24:53;;;;;;;;;;;7.30;64.70;;;2.62;100.00;95436.47;4973467;28;19952;-47
2022/11/08 03:27:22;;;;;;;;;;;7.30;64.70;;;2.60;100.00;95441.16;4990695;28;19909;-49
2022/11/08 03:29:48;;;;;;;;;;;7.30;64.70;;;2.59;100.00;95439.53;4955990;28;19910;-47
2022/11/08 03:32:15;;;;;;;;;;;7.30;64.70;;;2.55;100.00;95447.03;4957244;28;19916;-47
2022/11/08 03:34:41;;;;;;;;;;;7.30;64.80;;;2.55;100.00;95448.88;4991050;28;20274;-47
2022/11/08 03:37:13;;;;;;;;;;;7.30;64.70;;;2.56;100.00;95439.97;4965548;28;19917;-49
2022/11/08 03:39:42;;;;;;;;;;;7.30;64.80;;;2.54;100.00;95440.19;4990967;28;19967;-47
2022/11/08 03:42:07;;;;;;;;;;;7.30;64.90;;;2.53;100.00;95435.94;4980305;28;19914;-47
2022/11/08 03:44:33;;;;;;;;;;;7.30;64.90;;;2.50;100.00;95435.56;4989378;28;20265;-47
2022/11/08 03:47:00;;;;;;;;;;;7.30;64.80;;;2.51;100.00;95440.63;4973772;28;19917;-47
2022/11/08 03:49:31;;;;;;;;;;;7.30;64.80;;;2.51;100.00;95440.63;4973296;28;19916;-48
2022/11/08 03:51:57;;;;;;;;;;;7.30;64.90;;;2.52;100.00;95431.69;4973073;28;19914;-52
2022/11/08 03:54:29;;;;;;;;;;;7.30;64.90;;;2.51;100.00;95437.19;4981870;28;20376;-48
2022/11/08 03:56:54;;;;;;;;;;;7.30;64.90;;;2.55;100.00;95427.84;4989637;28;19909;-48
2022/11/08 03:59:20;;;;;;;;;;;7.30;64.90;;;2.53;100.00;95424.63;4988542;28;19936;-48
2022/11/08 04:01:49;;;;;;;;;;;7.30;64.90;;;2.48;100.00;95430.53;4977884;28;19914;-53
2022/11/08 04:04:14;;;;;;;;;;;7.30;64.90;;;2.49;100.00;95431.34;4961041;28;19909;-46
2022/11/08 04:06:43;;;;;;;;;;;7.30;65.00;;;2.47;100.00;95428.91;4976256;28;20287;-50
2022/11/08 04:09:15;;;;;;;;;;;7.30;65.00;;;2.47;100.00;95426.28;4977181;28;19991;-47
2022/11/08 04:21:17;;;;;;;;;;;7.30;65.30;;;2.50;100.00;95425.06;4979477;28;19983;-45
2022/11/08 04:23:01;;;;;;;;;;;7.30;65.30;;;2.49;100.00;95429.50;4978849;28;20330;-54
2022/11/08 04:25:29;;;;;;;;;;;7.30;65.30;;;2.48;100.00;95427.13;4992752;28;19910;-47
2022/11/08 04:28:05;;;;;;;;;;;7.30;65.40;;;2.49;100.00;95420.81;4976564;28;20387;-49
2022/11/08 04:30:31;;;;;;;;;;;7.30;65.40;;;2.47;100.00;95434.16;4973135;28;19948;-47
2022/11/08 04:33:03;;;;;;;;;;;7.30;65.50;;;2.47;100.00;95430.75;4992770;28;19917;-47
2022/11/08 04:35:32;;;;;;;;;;;7.30;65.50;;;2.44;100.00;95433.81;4960726;28;20327;-52
2022/11/08 04:38:01;;;;;;;;;;;7.30;65.40;;;2.46;100.00;95421.25;4993977;28;19916;-47
2022/11/08 04:40:30;;;;;;;;;;;7.30;65.40;;;2.41;100.00;95421.09;4960360;28;19929;-51
2022/11/08 04:42:58;;;;;;;;;;;7.30;65.40;;;2.54;100.00;95423.63;4975353;28;19921;-48
2022/11/08 04:45:24;;;;;;;;;;;7.30;65.50;;;2.64;100.00;95417.84;4993740;28;20431;-47
2022/11/08 04:47:59;;;;;;;;;;;7.40;65.60;;;2.68;100.00;95411.13;4975475;28;20008;-47
2022/11/08 04:50:25;;;;;;;;;;;7.40;66.50;;;2.71;100.00;95408.84;4992404;28;19921;-50
2022/11/08 04:52:53;;;;;;;;;;;7.50;65.80;;;2.81;100.00;95410.97;4975576;28;20407;-46
2022/11/08 04:55:21;;;;;;;;;;;7.50;65.80;;;2.90;100.00;95411.47;4975277;28;19913;-49
2022/11/08 04:57:49;;;;;;;;;;;7.60;65.90;;;2.89;100.00;95408.06;4972591;28;19968;-47
2022/11/08 05:00:16;;;;;;;;;;;7.60;65.80;;;2.91;100.00;95407.81;4971386;28;19914;-54
2022/11/08 05:02:42;;;;;;;;;;;7.70;65.80;;;2.96;100.00;95405.34;4959832;28;19921;-47
2022/11/08 05:05:09;;;;;;;;;;;7.70;65.70;;;2.95;100.00;95404.53;4959377;28;19917;-49
2022/11/08 05:07:43;;;;;;;;;;;7.70;65.60;;;2.95;100.00;95399.28;4993356;28;20518;-51
2022/11/08 05:10:10;;;;;;;;;;;7.70;65.50;;;2.94;100.00;95396.84;4991920;28;20577;-47
2022/11/08 05:12:42;;;;;;;;;;;7.70;65.50;;;2.91;100.00;95392.81;4957932;28;20402;-47
2022/11/08 05:15:08;;;;;;;;;;;7.70;65.40;;;2.90;100.00;95380.72;4993481;28;19916;-47
2022/11/08 05:17:41;;;;;;;;;;;7.70;65.30;;;2.92;100.00;95375.25;4990910;28;19924;-47
2022/11/08 05:25:57;;;;;;;;;;;7.70;65.40;;;2.90;100.00;95366.75;4959000;28;19932;-48
2022/11/08 05:28:26;;;;;;;;;;;7.70;65.50;;;2.87;100.00;95368.00;4953795;28;20281;-46
2022/11/08 05:30:56;;;;;;;;;;;7.70;66.30;;;2.85;100.00;95362.16;4954464;28;19917;-53
2022/11/08 05:33:22;;;;;;;;;;;7.60;65.50;;;2.84;100.00;95360.53;4973483;28;20021;-48
2022/11/08 05:35:52;;;;;;;;;;;7.60;65.40;;;2.80;100.00;95345.44;4968063;28;19916;-49
2022/11/08 05:38:19;;;;;;;;;;;7.60;65.40;;;2.79;100.00;95344.63;4940014;28;19914;-50
2022/11/08 05:40:48;;;;;;;;;;;7.60;65.50;;;2.83;100.00;95358.94;4955410;28;20266;-46
2022/11/08 05:43:14;;;;;;;;;;;7.60;65.60;;;2.83;100.00;95374.72;4954938;28;19914;-47
2022/11/08 05:45:45;;;;;;;;;;;7.60;65.60;;;2.77;100.00;95380.88;4956196;28;19968;-48
2022/11/08 05:48:10;;;;;;;;;;;7.60;65.60;;;2.72;100.00;95378.09;4971011;28;19924;-52
2022/11/08 05:50:36;;;;;;;;;;;7.50;65.50;;;2.69;100.00;95381.16;4972764;28;19913;-48
2022/11/08 05:53:02;;;;;;;;;;;7.50;65.50;;;2.66;100.00;95379.75;4954215;28;19949;-51
2022/11/08 05:55:31;;;;;;;;;;;7.50;65.60;;;2.65;100.00;95378.16;4966998;28;19964;-50
2022/11/08 05:58:00;;;;;;;;;;;7.50;65.60;;;2.63;100.00;95363.63;4969525;28;19964;-52
2022/11/08 06:00:29;;;;;;;;;;;7.50;65.60;;;2.59;100.00;95354.56;4928613;28;20363;-53
2022/11/08 06:03:00;;;;;;;;;;;7.50;65.60;;;2.57;100.00;95360.06;4952678;28;19921;-47
2022/11/08 06:05:25;;;;;;;;;;;7.50;65.60;;;2.65;100.00;95372.09;4949317;28;20840;-48
2022/11/08 06:08:03;;;;;;;;;;;7.50;65.70;;;2.64;100.00;95375.78;4972356;28;19968;-47
2022/11/08 06:10:32;;;;;;;;;;;7.50;65.80;;;2.64;100.00;95375.78;4955439;28;19959;-54
2022/11/08 06:13:01;;;;;;;;;;;7.50;65.80;;;2.65;100.00;95385.25;4939560;28;20324;-48
2022/11/08 06:15:30;;;;;;;;;;;7.50;65.70;;;2.67;100.00;95389.28;4971533;28;19910;-47
2022/11/08 06:17:59;;;;;;;;;;;7.50;65.80;;;2.68;100.00;95392.72;4953876;28;19916;-50
2022/11/08 06:20:25;;;;;;;;;;;7.60;65.80;;;2.68;100.00;95392.72;4972467;28;20004;-49
2022/11/08 06:22:54;;;;;;;;;;;7.60;65.80;;;2.66;100.00;95395.53;4991858;28;20008;-53
2022/11/08 06:25:29;;;;;;;;;;;7.60;65.70;;;2.64;100.00;95383.66;4989764;28;20706;-48
2022/11/08 06:27:54;;;;;;;;;;;7.60;65.60;;;2.71;100.00;95395.69;4991597;28;19910;-50
2022/11/08 06:30:26;;;;;;;;;;;7.60;65.60;;;2.72;100.00;95394.66;4989754;28;19913;-51
2022/11/08 06:32:59;;;;;;;;;;;7.60;65.60;;;2.73;100.00;95395.50;4990676;28;19909;-51
2022/11/08 06:35:25;;;;;;;;;;;7.60;65.60;;;2.72;100.00;95394.66;4957018;28;20000;-49
2022/11/08 06:37:51;;;;;;;;;;;7.60;65.70;;;2.73;100.00;95390.22;4991283;28;19925;-49
2022/11/08 06:40:19;;;;;;;;;;;7.60;65.70;;;2.77;100.00;95397.44;4952445;28;20354;-51
2022/11/08 06:42:45;;;;;;;;;;;7.60;65.70;;;2.80;100.00;95403.31;4970249;28;19913;-51
2022/11/08 06:45:11;;;;;;;;;;;7.70;65.80;;;2.81;100.00;95400.44;4973511;28;19909;-50
2022/11/08 06:47:36;;;;;;;;;;;7.70;65.60;;;2.80;100.00;95390.16;4985850;28;19917;-50
2022/11/08 06:50:04;;;;;;;;;;;7.70;65.60;;;2.80;100.00;95398.84;4971437;28;20292;-52
2022/11/08 06:52:29;;;;;;;;;;;7.70;65.60;;;2.77;100.00;95413.22;4855939;28;19920;-51
2022/11/08 06:54:55;;;;;;;;;;;7.60;65.50;;;2.78;100.00;95424.56;4949003;28;19910;-49
2022/11/08 06:57:21;;;;;;;;;;;7.60;65.50;;;2.75;100.00;95431.06;4929047;28;19963;-52
2022/11/08 06:59:47;;;;;;;;;;;7.60;65.50;;;2.71;100.00;95437.78;4983515;28;19910;-52
2022/11/08 07:02:12;;;;;;;;;;;7.60;65.50;;;2.70;100.00;95435.38;4983919;28;19964;-49
2022/11/08 07:04:38;;;;;;;;;;;7.70;65.50;;;2.67;100.00;95436.63;4989223;28;19921;-48
2022/11/08 07:07:04;;;;;;;;;;;7.70;65.50;;;2.64;100.00;95449.41;4976058;28;19914;-50
2022/11/08 07:09:30;;;;;;;;;;;7.60;65.40;;;2.60;100.00;95450.84;4984511;28;19913;-51
2022/11/08 07:11:55;;;;;;;;;;;7.60;65.40;;;2.59;100.00;95459.75;4981249;28;19914;-51
2022/11/08 07:14:21;;;;;;;;;;;7.60;65.40;;;2.61;100.00;95457.72;4972421;28;20288;-52
2022/11/08 07:16:50;;;;;;;;;;;7.60;66.20;;;2.61;100.00;95452.47;5005208;28;19910;-49
2022/11/08 07:19:16;;;;;;;;;;;7.60;65.40;;;2.57;100.00;95460.00;4976622;28;19932;-49
2022/11/08 07:21:42;;;;;;;;;;;7.70;65.40;;;2.60;100.00;95469.25;5001107;28;19921;-51
2022/11/08 07:24:07;;;;;;;;;;;7.70;65.30;;;2.61;100.00;95466.41;5009046;28;19909;-50
2022/11/08 07:26:33;;;;;;;;;;;7.70;65.30;;;2.69;100.00;95476.63;4992322;28;19913;-52
2022/11/08 07:28:59;;;;;;;;;;;7.80;65.30;;;2.79;100.00;95486.69;4991984;28;19917;-50
2022/11/08 07:31:28;;;;;;;;;;;7.90;65.30;;;2.87;100.00;95483.75;4982192;28;19959;-48
2022/11/08 07:33:59;;;;;;;;;;;8.00;65.40;;;2.96;100.00;95484.28;5009324;28;19980;-49
2022/11/08 07:36:25;;;;;;;;;;;8.10;65.40;;;3.03;100.00;95489.47;5010973;28;19954;-49
2022/11/08 07:38:54;;;;;;;;;;;8.20;65.50;;;3.08;100.00;95489.63;5013237;28;19913;-51
2022/11/08 07:41:19;;;;;;;;;;;8.20;65.50;;;3.14;100.00;95483.47;4995099;28;19974;-52
2022/11/08 07:43:54;;;;;;;;;;;8.40;65.50;;;3.31;100.00;95483.69;4979889;28;19916;-55
2022/11/08 07:46:23;;;;;;;;;;;8.60;65.50;;;3.53;100.00;95481.38;4996127;28;19939;-51
2022/11/08 07:48:57;;;;;;;;;;;8.70;65.50;;;3.73;100.00;95495.09;5010993;28;19909;-51
2022/11/08 07:51:23;;;;;;;;;;;9.00;65.50;;;3.92;100.00;95499.28;4977643;28;19992;-51
2022/11/08 07:53:49;;;;;;;;;;;9.20;65.50;;;4.11;100.00;95501.88;4979056;28;19992;-52
2022/11/08 07:56:18;;;;;;;;;;;9.40;65.50;;;4.33;100.00;95497.69;4995509;28;20383;-52
2022/11/08 07:58:43;;;;;;;;;;;9.70;65.40;;;4.58;100.00;95507.22;5013313;28;19916;-52
2022/11/08 08:01:09;;;;;;;;;;;9.90;65.30;;;4.76;100.00;95495.75;4988321;28;19913;-52
2022/11/08 08:03:35;;;;;;;;;;;10.10;65.30;;;4.94;100.00;95510.66;5013384;28;19913;-51
2022/11/08 08:06:01;;;;;;;;;;;10.30;65.20;;;5.13;100.00;95514.78;4995633;28;19909;-51
2022/11/08 08:08:28;;;;;;;;;;;10.50;65.10;;;5.32;100.00;95510.94;4979869;28;19909;-50
2022/11/08 08:11:02;;;;;;;;;;;10.80;65.10;;;5.55;100.00;95506.66;4967215;28;19941;-54
2022/11/08 08:13:30;;;;;;;;;;;11.00;65.00;;;5.73;100.00;95513.59;5013638;28;20012;-53
2022/11/08 08:16:00;;;;;;;;;;;11.20;65.00;;;5.91;100.00;95508.13;5013871;28;19996;-53
2022/11/08 08:18:29;;;;;;;;;;;11.40;64.80;;;6.10;100.00;95513.25;4995141;28;19909;-53
2022/11/08 08:21:04;;;;;;;;;;;11.60;64.70;;;6.28;100.00;95505.09;5013471;28;20012;-53
2022/11/08 08:23:30;;;;;;;;;;;11.80;64.60;;;6.46;100.00;95512.03;4995570;28;20032;-50
2022/11/08 08:25:56;;;;;;;;;;;12.10;64.60;;;6.65;100.00;95513.38;5009821;28;20343;-53
2022/11/08 08:28:22;;;;;;;;;;;12.30;64.30;;;6.88;100.00;95511.59;5006483;28;20314;-50
2022/11/08 08:30:47;;;;;;;;;;;12.60;64.10;;;7.11;100.00;95511.41;5008779;28;20303;-52
2022/11/08 08:33:18;;;;;;;;;;;12.90;64.00;;;7.35;100.00;95506.69;4983366;28;20400;-51
2022/11/08 08:35:44;;;;;;;;;;;13.20;63.80;;;7.60;100.00;95508.03;4967395;28;19913;-50
2022/11/08 08:38:12;;;;;;;;;;;13.50;63.60;;;7.83;100.00;95512.28;4990314;28;19919;-52
2022/11/08 08:40:38;;;;;;;;;;;13.80;63.40;;;7.98;100.00;95517.75;5008875;28;20441;-55
2022/11/08 08:43:05;;;;;;;;;;;14.00;63.10;;;8.10;98.64;95507.78;4974185;28;19965;-51
2022/11/08 08:45:33;;;;;;;;;;;14.20;62.80;;;8.13;93.87;95511.00;4991065;28;19959;-54
2022/11/08 08:48:00;;;;;;;;;;;14.50;62.40;;;8.28;94.12;95506.66;5007226;28;19913;-51
2022/11/08 08:50:29;;;;;;;;;;;14.60;62.00;;;8.39;93.11;95520.84;4993655;28;20339;-52
2022/11/08 08:53:04;;;;;;;;;;;14.80;61.70;;;8.58;93.16;95515.94;4973544;28;20331;-54
2022/11/08 08:55:31;;;;;;;;;;;14.90;61.40;;;8.78;92.72;95521.44;4990252;28;20019;-50
2022/11/08 08:57:58;;;;;;;;;;;15.00;61.40;;;8.88;91.03;95520.72;4990856;28;20277;-51
2022/11/08 09:00:24;;;;;;;;;;;15.10;61.20;;;8.88;88.29;95519.91;5008454;28;19909;-51
2022/11/08 09:02:49;;;;;;;;;;;15.20;61.90;;;8.97;88.38;95519.19;4990395;28;19921;-51
2022/11/08 09:05:24;;;;;;;;;;;15.20;60.90;;;9.04;86.19;95518.94;5006997;28;20360;-50
2022/11/08 09:07:54;;;;;;;;;;;15.30;60.70;;;9.46;87.33;95528.75;4991940;28;19916;-51
2022/11/08 09:10:20;;;;;;;;;;;15.70;60.50;;;9.82;83.96;95535.03;4971583;28;19913;-51
2022/11/08 09:12:46;;;;;;;;;;;16.20;60.20;;;10.11;83.76;95519.41;5006676;28;19917;-52
2022/11/08 09:15:12;;;;;;;;;;;16.50;59.90;;;10.36;82.68;95533.88;4990493;28;19948;-52
2022/11/08 09:17:40;;;;;;;;;;;16.70;59.80;;;10.61;81.25;95533.91;5007552;28;19913;-51
2022/11/08 09:20:07;;;;;;;;;;;17.10;59.50;;;10.93;79.11;95527.50;4976309;28;19913;-55
2022/11/08 09:22:33;;;;;;;;;;;17.40;59.20;;;11.31;79.51;95522.66;5005170;28;20380;-52
2022/11/08 09:25:00;;;;;;;;;;;17.90;59.70;;;11.75;74.87;95522.00;4972851;28;20851;-55
2022/11/08 09:27:31;;;;;;;;;;;18.40;58.80;;;12.17;73.31;95528.78;4975109;28;19931;-50
2022/11/08 09:29:58;;;;;;;;;;;18.90;58.40;;;12.47;69.70;95520.59;4974812;28;20280;-53
2022/11/08 09:32:28;;;;;;;;;;;19.40;58.10;;;12.95;69.64;95520.75;4991572;28;19913;-53
2022/11/08 09:34:55;;;;;;;;;;;19.90;57.60;;;13.35;62.46;95524.16;4989913;28;20296;-50
2022/11/08 09:37:28;;;;;;;;;;;20.50;57.30;;;13.73;63.41;95518.94;4972883;28;20353;-53
2022/11/08 09:39:54;;;;;;;;;;;20.70;56.70;;;13.87;60.94;95521.69;4991777;28;19909;-52
2022/11/08 09:42:57;;;;;;;;;;;20.80;56.50;;;13.95;62.58;95522.97;4990518;28;19962;-50
2022/11/08 09:45:57;;;;;;;;;;;20.80;56.30;;;13.93;60.45;95528.59;5007159;28;20291;-48
2022/11/08 09:48:50;;;;;;;;;;;20.70;56.00;;;13.97;60.24;95520.78;4920566;28;19918;-48
2022/11/08 09:51:21;;;;;;;;;;;20.70;55.40;;;14.15;58.21;95527.25;4996654;28;19910;-54
2022/11/08 09:54:02;;;;;;;;;;;21.00;55.20;;;14.39;58.26;95532.56;4991274;28;19958;-52
2022/11/08 09:56:39;;;;;;;;;;;21.40;54.80;;;14.72;56.93;95533.44;4989820;28;20030;-51
2022/11/08 09:59:29;;;;;;;;;;;21.70;54.40;;;15.04;56.55;95525.41;5008693;28;19914;-51
2022/11/08 10:01:54;;;;;;;;;;;22.20;53.80;;;15.08;56.25;95522.94;5005984;28;20007;-55
2022/11/08 10:04:26;;;;;;;;;;;22.50;53.60;;;15.31;55.28;95526.56;4991425;28;20016;-54
2022/11/08 10:07:20;;;;;;;;;;;22.80;53.30;;;15.65;54.20;95526.19;4983963;28;19933;-49
2022/11/08 10:10:26;;;;;;;;;;;23.00;53.00;;;15.84;54.53;95530.72;4988501;28;20347;-49
2022/11/08 10:13:29;;;;;;;;;;;23.30;52.70;;;15.99;52.44;95527.72;5006043;28;20436;-49
2022/11/08 10:16:05;;;;;;;;;;;23.50;52.20;;;16.15;53.95;95531.69;4988663;28;19996;-47
2022/11/08 10:19:08;;;;;;;;;;;23.50;51.90;;;16.32;54.04;95516.81;4990678;28;20414;-52
2022/11/08 10:21:55;;;;;;;;;;;23.60;51.60;;;16.21;53.11;95524.31;5000743;28;19989;-47
2022/11/08 10:24:34;;;;;;;;;;;23.70;51.40;;;16.36;53.11;95526.69;5006403;28;20303;-55
2022/11/08 10:27:03;;;;;;;;;;;23.90;51.10;;;16.53;52.87;95519.84;5005446;28;19917;-56
2022/11/08 10:29:53;;;;;;;;;;;24.30;50.70;;;16.69;50.02;95518.41;4973136;28;19928;-52
2022/11/08 10:32:22;;;;;;;;;;;24.40;50.30;;;16.97;48.85;95521.00;5002871;28;19917;-50
2022/11/08 10:35:08;;;;;;;;;;;24.60;50.00;;;17.10;49.06;95517.44;4991083;28;20425;-50
2022/11/08 10:37:52;;;;;;;;;;;24.80;49.80;;;17.27;48.46;95516.78;5004829;28;19995;-52
2022/11/08 10:40:51;;;;;;;;;;;24.70;49.60;;;17.24;49.98;95501.25;4974593;28;20303;-47
2022/11/08 10:43:48;;;;;;;;;;;24.40;49.60;;;17.06;50.87;95505.72;5006423;28;19959;-52
2022/11/08 10:46:56;;;;;;;;;;;24.00;49.60;;;16.69;51.51;95499.56;4987860;28;20405;-52
2022/11/08 10:49:42;;;;;;;;;;;23.70;49.60;;;16.42;51.47;95495.06;5002854;28;20370;-50
2022/11/08 10:52:39;;;;;;;;;;;23.40;49.40;;;16.35;51.89;95495.50;4972660;28;20277;-48
2022/11/08 10:55:35;;;;;;;;;;;23.20;49.40;;;16.17;52.64;95497.25;4984236;28;20300;-50
2022/11/08 10:58:39;;;;;;;;;;;23.10;49.30;;;16.56;53.14;95490.47;5007324;28;19909;-50
2022/11/08 11:01:21;;;;;;;;;;;23.50;49.20;;;16.90;53.14;95491.84;4984300;28;19916;-55
2022/11/08 11:03:51;;;;;;;;;;;24.00;49.10;;;16.99;50.91;95481.16;4986747;28;19949;-53
2022/11/08 11:06:22;;;;;;;;;;;24.50;48.70;;;17.37;50.56;95486.91;4983476;28;20252;-51
2022/11/08 11:09:20;;;;;;;;;;;24.80;48.30;;;17.52;47.01;95491.88;5005543;28;19909;-50
2022/11/08 11:12:01;;;;;;;;;;;25.10;48.00;;;17.87;49.72;95488.53;5002572;28;19909;-53
2022/11/08 11:14:27;;;;;;;;;;;25.50;47.80;;;17.94;47.44;95486.97;4986513;28;19916;-49
2022/11/08 11:17:14;;;;;;;;;;;25.60;47.50;;;17.90;43.93;95475.22;4987151;28;19912;-54
2022/11/08 11:19:54;;;;;;;;;;;25.90;47.10;;;17.96;47.20;95482.06;4973633;28;19924;-56
2022/11/08 11:22:43;;;;;;;;;;;25.90;46.30;;;18.15;44.49;95479.09;5006540;28;19925;-57
2022/11/08 11:25:21;;;;;;;;;;;26.20;45.90;;;18.37;45.13;95471.97;5002056;28;19909;-55
2022/11/08 11:27:58;;;;;;;;;;;26.50;45.40;;;18.46;43.97;95465.47;4989766;28;20012;-57
2022/11/08 11:30:34;;;;;;;;;;;26.70;45.20;;;18.63;43.40;95459.28;4982424;28;19924;-58
2022/11/08 11:33:24;;;;;;;;;;;26.80;44.80;;;18.97;44.63;95463.06;5007655;28;19913;-55
2022/11/08 11:36:04;;;;;;;;;;;27.00;44.50;;;18.76;42.18;95452.13;4987682;28;19915;-54
2022/11/08 11:39:03;;;;;;;;;;;27.30;44.10;;;19.03;42.50;95455.59;5006054;28;20466;-58
2022/11/08 11:42:06;;;;;;;;;;;27.30;44.20;;;19.15;41.62;95447.63;5002569;28;19982;-55
2022/11/08 11:45:25;;;;;;;;;;;27.30;43.30;;;19.02;40.30;95437.81;4988750;28;19909;-58
2022/11/08 11:48:00;;;;;;;;;;;27.00;42.80;;;18.73;40.02;95437.38;4990284;28;19913;-57
2022/11/08 11:50:46;;;;;;;;;;;26.70;42.40;;;18.42;41.61;95439.44;4958645;28;20293;-58
2022/11/08 11:53:26;;;;;;;;;;;26.30;41.80;;;18.10;41.53;95428.00;4984605;28;20330;-58
2022/11/08 11:56:29;;;;;;;;;;;26.00;42.00;;;17.69;42.33;95421.09;4987531;28;19917;-58
2022/11/08 11:59:30;;;;;;;;;;;25.60;41.40;;;17.77;43.37;95428.44;5004667;28;19913;-58
2022/11/08 12:02:40;;;;;;;;;;;25.20;41.60;;;17.15;41.84;95419.66;4999352;28;19920;-57
2022/11/08 12:05:44;;;;;;;;;;;24.90;41.00;;;17.15;42.96;95423.13;5005187;28;20272;-54
2022/11/08 12:08:35;;;;;;;;;;;24.50;40.80;;;16.96;44.35;95425.28;4972473;28;19913;-57
2022/11/08 12:11:58;;;;;;;;;;;24.20;40.70;;;17.00;42.86;95421.63;5006653;28;19913;-57
2022/11/08 12:15:03;;;;;;;;;;;24.00;40.80;;;17.19;42.50;95424.09;4999858;28;20292;-56
2022/11/08 12:17:53;;;;;;;;;;;23.80;41.10;;;17.24;43.13;95420.50;4976692;28;19933;-57